Time;durP1;ratioP1;P1;durP2;ratioP2;P2;SDS_P1;SDS_P2;PMS_P1;PMS_P2;Temp;Humidity;BMP_temperature;BMP_pressure;BME280_temperature;BME280_humidity;BME280_pressure;Samples;Min_cycle;Max_cycle;Signal;HPM_P1;HPM_P2
2023/11/16 00:00:12;;;;;;;15.07;2.33;;;10.80;99.90;;;;;;4930781;28;38525;-78
2023/11/16 00:02:45;;;;;;;12.10;2.53;;;10.70;99.90;;;;;;4934264;28;36345;-79
2023/11/16 00:05:13;;;;;;;10.47;2.10;;;10.60;99.90;;;;;;4951191;28;38388;-79
2023/11/16 00:07:46;;;;;;;12.63;1.90;;;10.60;99.90;;;;;;4934224;28;38061;-78
2023/11/16 00:10:19;;;;;;;7.77;2.27;;;10.60;99.90;;;;;;4929160;28;37495;-79
2023/11/16 00:12:45;;;;;;;10.73;2.23;;;10.60;99.90;;;;;;4932131;28;36038;-79
2023/11/16 00:15:11;;;;;;;12.67;1.90;;;10.60;99.90;;;;;;4919363;28;38384;-78
2023/11/16 00:17:38;;;;;;;16.23;2.40;;;10.60;99.90;;;;;;4929999;28;37707;-79
2023/11/16 00:20:05;;;;;;;16.97;2.77;;;10.60;99.90;;;;;;4925637;28;37569;-78
2023/11/16 00:22:31;;;;;;;12.80;2.10;;;10.60;99.90;;;;;;4933532;28;37435;-80
2023/11/16 00:24:58;;;;;;;7.00;1.63;;;10.60;99.90;;;;;;4928545;28;38023;-79
2023/11/16 00:27:26;;;;;;;12.43;1.57;;;10.60;99.90;;;;;;4926543;28;38544;-79
2023/11/16 00:29:52;;;;;;;9.53;1.80;;;10.70;99.90;;;;;;4945336;28;38262;-79
2023/11/16 00:32:18;;;;;;;10.80;2.10;;;10.70;99.90;;;;;;4944196;28;36031;-78
2023/11/16 00:34:45;;;;;;;9.67;2.03;;;10.70;99.90;;;;;;4916843;28;37896;-79
2023/11/16 00:37:11;;;;;;;15.00;2.57;;;10.70;99.90;;;;;;4950487;28;37578;-79
2023/11/16 00:39:40;;;;;;;12.30;1.60;;;10.70;99.90;;;;;;4944979;28;38157;-78
2023/11/16 00:42:07;;;;;;;10.67;1.43;;;10.70;99.90;;;;;;4949012;28;38586;-79
2023/11/16 00:44:34;;;;;;;9.85;1.50;;;10.60;99.90;;;;;;4945250;28;38571;-79
2023/11/16 00:47:01;;;;;;;10.27;1.47;;;10.50;99.90;;;;;;4926304;28;35256;-79
2023/11/16 00:49:27;;;;;;;10.47;1.90;;;10.50;99.90;;;;;;4943514;28;47593;-80
2023/11/16 00:51:53;;;;;;;8.53;1.30;;;10.50;99.90;;;;;;4928645;28;36247;-79
2023/11/16 00:54:22;;;;;;;6.87;0.77;;;10.40;99.90;;;;;;4954627;28;39343;-80
2023/11/16 00:56:51;;;;;;;4.73;1.00;;;10.30;99.90;;;;;;4931383;28;37107;-78
2023/11/16 00:59:20;;;;;;;3.77;1.13;;;10.20;99.90;;;;;;4931385;28;40118;-78
2023/11/16 01:01:47;;;;;;;10.47;1.40;;;10.20;99.90;;;;;;4948953;28;37498;-77
2023/11/16 01:04:13;;;;;;;8.43;2.10;;;10.10;99.90;;;;;;4949572;28;38956;-79
2023/11/16 01:06:40;;;;;;;13.03;1.57;;;10.00;99.90;;;;;;4945921;28;39519;-77
2023/11/16 01:09:07;;;;;;;7.67;1.37;;;10.00;99.90;;;;;;4937103;28;38806;-80
2023/11/16 01:11:36;;;;;;;8.27;2.20;;;10.00;99.90;;;;;;4937781;28;36242;-77
2023/11/16 01:14:02;;;;;;;7.60;1.43;;;10.00;99.90;;;;;;4953183;28;38905;-80
2023/11/16 01:16:41;;;;;;;11.87;1.70;;;9.90;99.90;;;;;;4938416;28;38349;-78
2023/11/16 01:19:12;;;;;;;8.63;1.73;;;9.90;99.90;;;;;;4930551;28;38479;-78
2023/11/16 01:21:44;;;;;;;6.13;1.30;;;9.90;99.90;;;;;;4938813;28;35938;-78
2023/11/16 01:24:13;;;;;;;8.77;1.50;;;9.90;99.90;;;;;;4948621;28;37953;-79
2023/11/16 01:26:43;;;;;;;7.27;1.40;;;9.90;99.90;;;;;;4946261;28;39146;-78
2023/11/16 01:29:10;;;;;;;10.57;1.70;;;9.90;99.90;;;;;;4954547;28;38154;-78
2023/11/16 01:31:40;;;;;;;11.70;1.30;;;9.90;99.90;;;;;;4933254;28;37556;-78
2023/11/16 01:34:14;;;;;;;8.30;1.63;;;9.90;99.90;;;;;;4936654;28;41784;-78
2023/11/16 01:36:40;;;;;;;11.33;1.90;;;9.90;99.90;;;;;;4934434;28;37621;-78
2023/11/16 01:39:09;;;;;;;11.00;2.40;;;9.90;99.90;;;;;;4933037;28;38485;-78
2023/11/16 01:41:35;;;;;;;12.27;2.10;;;9.90;99.90;;;;;;4926541;28;36052;-78
2023/11/16 01:44:02;;;;;;;9.03;2.00;;;9.90;99.90;;;;;;4924479;28;38454;-77
2023/11/16 01:46:33;;;;;;;7.37;1.80;;;9.90;99.90;;;;;;4945076;28;39309;-78
2023/11/16 01:49:01;;;;;;;6.60;1.40;;;10.00;99.90;;;;;;4939727;28;38674;-79
2023/11/16 01:51:29;;;;;;;7.87;1.53;;;9.90;99.90;;;;;;4930474;28;47162;-79
2023/11/16 01:53:58;;;;;;;7.87;1.83;;;9.90;99.90;;;;;;4917516;28;39593;-79
2023/11/16 01:56:29;;;;;;;9.80;1.67;;;9.90;99.90;;;;;;4944556;28;38986;-80
2023/11/16 01:58:57;;;;;;;7.90;1.30;;;9.90;99.90;;;;;;4926277;28;36964;-80
2023/11/16 02:03:54;;;;;;;13.00;1.87;;;10.00;99.90;;;;;;4931373;28;20051;-74
2023/11/16 02:06:22;;;;;;;6.43;1.23;;;10.00;99.90;;;;;;4949546;28;38293;-74
2023/11/16 02:08:50;;;;;;;10.33;1.80;;;10.00;99.90;;;;;;4933346;28;38930;-75
2023/11/16 02:11:16;;;;;;;12.17;2.03;;;9.90;99.90;;;;;;4931442;28;37725;-75
2023/11/16 02:13:45;;;;;;;8.60;1.43;;;10.00;99.90;;;;;;4939923;28;37478;-75
2023/11/16 02:16:13;;;;;;;6.80;1.50;;;9.90;99.90;;;;;;4947408;28;38830;-75
2023/11/16 02:18:39;;;;;;;7.07;1.43;;;10.00;99.90;;;;;;4935231;28;38266;-74
2023/11/16 02:21:06;;;;;;;7.13;1.60;;;9.90;99.90;;;;;;4950108;28;38964;-75
2023/11/16 02:23:33;;;;;;;10.37;2.03;;;9.90;99.90;;;;;;4955596;28;39153;-75
2023/11/16 02:26:00;;;;;;;11.83;1.90;;;9.90;99.90;;;;;;4956145;28;38431;-75
2023/11/16 02:28:27;;;;;;;9.97;2.23;;;9.90;99.90;;;;;;4937556;28;37956;-75
2023/11/16 02:30:53;;;;;;;15.63;1.80;;;10.00;99.90;;;;;;4950077;28;37879;-75
2023/11/16 02:33:20;;;;;;;6.30;1.80;;;10.00;99.90;;;;;;4956120;28;38879;-75
2023/11/16 02:35:46;;;;;;;15.67;3.07;;;10.00;99.90;;;;;;4952694;28;38154;-74
2023/11/16 02:38:14;;;;;;;8.87;1.90;;;10.10;99.90;;;;;;4939636;28;38074;-74
2023/11/16 02:40:40;;;;;;;14.20;2.10;;;10.10;99.90;;;;;;4925652;28;36160;-75
2023/11/16 02:43:06;;;;;;;8.17;1.60;;;10.10;99.90;;;;;;4943588;28;40723;-74
2023/11/16 02:45:34;;;;;;;10.97;1.80;;;10.10;99.90;;;;;;4952567;28;36958;-75
2023/11/16 02:48:00;;;;;;;5.87;1.53;;;10.10;99.90;;;;;;4955353;28;38211;-75
2023/11/16 02:50:27;;;;;;;5.20;1.40;;;10.10;99.90;;;;;;4956315;28;47288;-75
2023/11/16 02:52:53;;;;;;;9.87;1.70;;;10.10;99.90;;;;;;4934768;28;39299;-75
2023/11/16 02:55:20;;;;;;;9.57;1.60;;;10.20;99.90;;;;;;4952733;28;38267;-75
2023/11/16 02:57:46;;;;;;;4.60;1.30;;;10.20;99.90;;;;;;4937683;28;37684;-75
2023/11/16 03:00:13;;;;;;;6.33;1.27;;;10.20;99.90;;;;;;4944526;28;38433;-75
2023/11/16 03:02:40;;;;;;;4.83;1.10;;;10.20;99.90;;;;;;4940761;28;48085;-75
2023/11/16 03:05:09;;;;;;;5.00;1.30;;;10.20;99.90;;;;;;4935975;28;37072;-75
2023/11/16 03:07:35;;;;;;;6.20;1.10;;;10.20;99.90;;;;;;4938289;28;37281;-75
2023/11/16 03:10:03;;;;;;;3.70;1.10;;;10.20;99.90;;;;;;4933662;28;37223;-75
2023/11/16 03:12:29;;;;;;;6.07;1.30;;;10.20;99.90;;;;;;4949747;28;48423;-75
2023/11/16 03:14:56;;;;;;;7.07;1.23;;;10.20;99.90;;;;;;4944372;28;38571;-75
2023/11/16 03:17:23;;;;;;;5.20;1.03;;;10.20;99.90;;;;;;4936132;28;37841;-76
2023/11/16 03:19:49;;;;;;;8.00;1.27;;;10.20;99.90;;;;;;4943195;28;38123;-75
2023/11/16 03:22:15;;;;;;;3.73;1.10;;;10.20;99.90;;;;;;4942437;28;38832;-75
2023/11/16 03:24:41;;;;;;;7.87;1.77;;;10.20;99.90;;;;;;4945823;28;39348;-75
2023/11/16 03:27:09;;;;;;;4.00;1.00;;;10.20;99.90;;;;;;4941648;28;37576;-75
2023/11/16 03:29:38;;;;;;;4.60;1.03;;;10.20;99.90;;;;;;4945261;28;36188;-75
2023/11/16 03:32:07;;;;;;;7.90;1.00;;;10.10;99.90;;;;;;4940757;28;39362;-75
2023/11/16 03:34:34;;;;;;;6.23;1.00;;;10.20;99.90;;;;;;4944741;28;37340;-75
2023/11/16 03:37:02;;;;;;;3.70;0.97;;;10.20;99.90;;;;;;4951190;28;38928;-75
2023/11/16 03:39:28;;;;;;;4.30;1.20;;;10.20;99.90;;;;;;4917350;28;47345;-75
2023/11/16 03:41:54;;;;;;;7.67;1.60;;;10.10;99.90;;;;;;4939267;28;37738;-76
2023/11/16 03:44:20;;;;;;;4.90;1.53;;;10.10;99.90;;;;;;4959372;28;37242;-75
2023/11/16 03:46:46;;;;;;;6.03;1.30;;;10.10;99.90;;;;;;4952406;28;38959;-76
2023/11/16 03:49:14;;;;;;;6.13;1.37;;;10.10;99.90;;;;;;4936900;28;36122;-75
2023/11/16 03:51:40;;;;;;;9.57;1.43;;;10.10;99.90;;;;;;4951427;28;37509;-75
2023/11/16 03:54:06;;;;;;;8.57;2.07;;;10.00;99.90;;;;;;4952102;28;37468;-76
2023/11/16 03:56:32;;;;;;;5.77;1.67;;;10.00;99.90;;;;;;4954216;28;38078;-75
2023/11/16 03:58:58;;;;;;;8.20;2.43;;;10.00;99.90;;;;;;4949078;28;38892;-75
2023/11/16 04:01:24;;;;;;;6.03;2.00;;;10.00;99.90;;;;;;4951538;28;37529;-76
2023/11/16 04:03:51;;;;;;;5.40;1.57;;;10.00;99.90;;;;;;4951465;28;37617;-76
2023/11/16 04:06:18;;;;;;;7.33;2.07;;;10.10;99.90;;;;;;4951088;28;37907;-76
2023/11/16 04:08:46;;;;;;;4.97;1.97;;;10.10;99.90;;;;;;4948823;28;37433;-75
2023/11/16 04:11:13;;;;;;;7.30;1.50;;;10.10;99.90;;;;;;4956516;28;38709;-75
2023/11/16 04:13:39;;;;;;;6.37;1.80;;;10.10;99.90;;;;;;4938193;28;37561;-76
2023/11/16 04:16:20;;;;;;;5.47;1.60;;;10.10;99.90;;;;;;4933532;28;38039;-76
2023/11/16 04:18:49;;;;;;;4.97;1.53;;;10.20;99.90;;;;;;4937048;28;36032;-76
2023/11/16 04:21:25;;;;;;;3.10;1.60;;;10.10;99.90;;;;;;4944765;28;38775;-76
2023/11/16 04:23:56;;;;;;;3.63;1.73;;;10.10;99.90;;;;;;4933994;28;37520;-76
2023/11/16 04:26:28;;;;;;;3.83;1.87;;;10.10;99.90;;;;;;4953812;28;37770;-75
2023/11/16 04:28:56;;;;;;;5.93;2.55;;;10.10;99.90;;;;;;4937811;28;36416;-75
2023/11/16 04:31:26;;;;;;;10.97;3.03;;;10.20;99.90;;;;;;4931544;28;37804;-76
2023/11/16 04:33:54;;;;;;;7.63;2.30;;;10.10;99.90;;;;;;4937897;28;36896;-75
2023/11/16 04:36:24;;;;;;;5.33;2.27;;;10.10;99.90;;;;;;4952216;28;38776;-75
2023/11/16 04:38:56;;;;;;;10.83;2.90;;;10.20;99.90;;;;;;4926370;28;36307;-76
2023/11/16 04:41:27;;;;;;;6.45;2.83;;;10.20;99.90;;;;;;4944761;28;39544;-75
2023/11/16 04:43:57;;;;;;;5.63;2.20;;;10.10;99.90;;;;;;4927609;28;38256;-76
2023/11/16 04:46:26;;;;;;;6.07;2.53;;;10.10;99.90;;;;;;4943744;28;38064;-75
2023/11/16 04:48:54;;;;;;;8.00;3.23;;;10.10;99.90;;;;;;4943035;28;36123;-75
2023/11/16 04:51:21;;;;;;;5.37;2.83;;;10.10;99.90;;;;;;4928490;28;37773;-76
2023/11/16 04:53:48;;;;;;;15.50;4.27;;;10.10;99.90;;;;;;4931655;28;37502;-75
2023/11/16 04:56:14;;;;;;;8.93;3.70;;;10.10;99.90;;;;;;4952195;28;38512;-76
2023/11/16 04:58:41;;;;;;;9.23;4.10;;;10.10;99.90;;;;;;4957859;28;36087;-76
2023/11/16 05:01:08;;;;;;;10.77;3.90;;;10.00;99.90;;;;;;4942081;28;38707;-76
2023/11/16 05:03:34;;;;;;;14.87;5.23;;;10.00;99.90;;;;;;4929518;28;38352;-76
2023/11/16 05:06:01;;;;;;;11.63;4.87;;;10.10;99.90;;;;;;4925919;28;37910;-76
2023/11/16 05:08:27;;;;;;;12.63;4.90;;;10.00;99.90;;;;;;4935090;28;47057;-75
2023/11/16 05:10:53;;;;;;;11.07;4.90;;;10.00;99.90;;;;;;4929174;28;39001;-76
2023/11/16 05:13:21;;;;;;;15.13;5.50;;;10.00;99.90;;;;;;4943051;28;38005;-76
2023/11/16 05:15:47;;;;;;;10.87;4.97;;;9.90;99.90;;;;;;4929186;28;37679;-76
2023/11/16 05:18:16;;;;;;;11.70;5.03;;;9.90;99.90;;;;;;4929486;28;36678;-76
2023/11/16 05:20:43;;;;;;;16.73;5.20;;;9.90;99.90;;;;;;4929282;28;36570;-76
2023/11/16 05:23:17;;;;;;;17.83;6.43;;;9.80;99.90;;;;;;4953306;28;38465;-76
2023/11/16 05:25:44;;;;;;;10.50;5.50;;;9.80;99.90;;;;;;4931728;28;36930;-76
2023/11/16 05:28:11;;;;;;;11.13;5.17;;;9.80;99.90;;;;;;4943889;28;35906;-75
2023/11/16 05:30:38;;;;;;;10.40;4.43;;;9.80;99.90;;;;;;4927832;28;38013;-76
2023/11/16 05:33:04;;;;;;;16.93;5.07;;;9.80;99.90;;;;;;4939670;28;37405;-76
2023/11/16 05:35:32;;;;;;;14.27;5.70;;;9.80;99.90;;;;;;4921160;28;38221;-76
2023/11/16 05:37:58;;;;;;;7.10;4.13;;;9.80;99.90;;;;;;4925649;28;36219;-76
2023/11/16 05:40:26;;;;;;;14.07;5.50;;;9.80;99.90;;;;;;4925894;28;37426;-76
2023/11/16 05:42:53;;;;;;;11.80;5.43;;;9.80;99.90;;;;;;4954850;28;38911;-76
2023/11/16 05:45:19;;;;;;;16.73;6.23;;;9.80;99.90;;;;;;4941162;28;36922;-75
2023/11/16 05:47:45;;;;;;;14.37;5.40;;;9.90;99.90;;;;;;4947902;28;37177;-76
2023/11/16 05:50:12;;;;;;;12.30;5.40;;;9.90;99.90;;;;;;4950558;28;37796;-75
2023/11/16 05:52:39;;;;;;;7.67;4.73;;;9.80;99.90;;;;;;4956232;28;37299;-76
2023/11/16 05:55:05;;;;;;;12.33;5.13;;;9.80;99.90;;;;;;4951753;28;38123;-76
2023/11/16 05:57:32;;;;;;;13.83;6.27;;;9.80;99.90;;;;;;4940799;28;36790;-76
2023/11/16 05:59:59;;;;;;;15.20;5.47;;;9.80;99.90;;;;;;4916351;28;38071;-76
2023/11/16 06:02:26;;;;;;;13.27;5.53;;;9.80;99.90;;;;;;4908503;28;38543;-76
2023/11/16 06:04:52;;;;;;;8.73;4.10;;;9.70;99.90;;;;;;4913312;28;36777;-76
2023/11/16 06:07:18;;;;;;;8.70;3.40;;;9.60;99.90;;;;;;4915657;28;34834;-76
2023/11/16 06:09:44;;;;;;;8.23;3.30;;;9.60;99.90;;;;;;4918415;28;38081;-76
2023/11/16 06:12:10;;;;;;;11.63;3.47;;;9.50;99.90;;;;;;4913529;28;40033;-76
2023/11/16 06:14:39;;;;;;;8.70;3.20;;;9.50;99.90;;;;;;4916385;28;37259;-76
2023/11/16 06:17:05;;;;;;;9.17;3.00;;;9.40;99.90;;;;;;4920883;28;37939;-77
2023/11/16 06:19:31;;;;;;;4.00;2.17;;;9.40;99.90;;;;;;4924193;28;38931;-76
2023/11/16 06:21:57;;;;;;;8.00;2.73;;;9.40;99.90;;;;;;4914467;28;38456;-76
2023/11/16 06:24:23;;;;;;;5.73;2.50;;;9.40;99.90;;;;;;4916831;28;36644;-75
2023/11/16 06:26:49;;;;;;;4.93;2.30;;;9.40;99.90;;;;;;4907621;28;37303;-75
2023/11/16 06:29:15;;;;;;;9.80;2.00;;;9.40;99.90;;;;;;4908841;28;39430;-74
2023/11/16 06:31:42;;;;;;;3.93;2.10;;;9.40;99.90;;;;;;4893550;28;37366;-75
2023/11/16 06:34:09;;;;;;;11.27;2.57;;;9.40;99.90;;;;;;4917931;28;39014;-76
2023/11/16 06:36:37;;;;;;;6.40;2.50;;;9.40;99.90;;;;;;4913476;28;35647;-76
2023/11/16 06:39:03;;;;;;;3.00;2.00;;;9.40;99.90;;;;;;4889929;28;37498;-76
2023/11/16 06:41:29;;;;;;;6.10;2.20;;;9.40;99.90;;;;;;4909847;28;37739;-76
2023/11/16 06:43:59;;;;;;;12.33;3.80;;;9.50;99.90;;;;;;4900335;28;37275;-76
2023/11/16 06:46:28;;;;;;;7.53;3.20;;;9.40;99.90;;;;;;4913742;28;38687;-76
2023/11/16 06:48:57;;;;;;;7.97;3.90;;;9.40;99.90;;;;;;4906316;28;37839;-76
2023/11/16 06:51:23;;;;;;;6.93;3.67;;;9.40;99.90;;;;;;4912720;28;40133;-76
2023/11/16 06:53:50;;;;;;;6.13;3.27;;;9.40;99.90;;;;;;4895027;28;37170;-76
2023/11/16 06:56:17;;;;;;;12.40;3.83;;;9.40;99.90;;;;;;4895660;29;36938;-76
2023/11/16 06:58:43;;;;;;;9.00;3.73;;;9.40;99.90;;;;;;4913668;28;38960;-75
2023/11/16 07:01:10;;;;;;;14.67;4.47;;;9.40;99.90;;;;;;4915081;28;37208;-75
2023/11/16 07:03:36;;;;;;;11.90;4.77;;;9.40;99.90;;;;;;4917849;28;38928;-75
2023/11/16 07:06:03;;;;;;;12.90;5.13;;;9.40;99.90;;;;;;4903940;28;36320;-75
2023/11/16 07:08:29;;;;;;;9.93;4.30;;;9.40;99.90;;;;;;4920888;28;38121;-75
2023/11/16 07:10:55;;;;;;;7.60;4.90;;;9.50;99.90;;;;;;4916640;28;38610;-76
2023/11/16 07:13:23;;;;;;;12.40;4.83;;;9.40;99.90;;;;;;4916859;28;37395;-76
2023/11/16 07:15:49;;;;;;;10.87;5.13;;;9.40;99.90;;;;;;4916942;28;37021;-75
2023/11/16 07:18:19;;;;;;;10.97;5.30;;;9.40;99.90;;;;;;4895494;28;35972;-77
2023/11/16 07:20:47;;;;;;;19.27;7.07;;;9.50;99.90;;;;;;4914290;28;37438;-75
2023/11/16 07:23:14;;;;;;;19.00;7.40;;;9.40;99.90;;;;;;4913321;28;39068;-75
2023/11/16 07:25:43;;;;;;;18.07;7.83;;;9.50;99.90;;;;;;4913576;28;36651;-76
2023/11/16 07:28:10;;;;;;;15.93;7.70;;;9.40;99.90;;;;;;4898403;28;38122;-76
2023/11/16 07:30:37;;;;;;;29.03;9.57;;;9.50;99.90;;;;;;4898528;28;37497;-76
2023/11/16 07:33:03;;;;;;;18.60;7.87;;;9.40;99.90;;;;;;4888653;29;36889;-76
2023/11/16 07:35:30;;;;;;;21.57;11.10;;;9.50;99.90;;;;;;4913409;28;36291;-76
2023/11/16 07:38:00;;;;;;;21.87;10.43;;;9.50;99.90;;;;;;4900135;28;37861;-77
2023/11/16 07:40:27;;;;;;;20.80;10.53;;;9.50;99.90;;;;;;4899411;29;37580;-76
2023/11/16 07:42:53;;;;;;;19.87;11.27;;;9.40;99.90;;;;;;4898806;28;37448;-76
2023/11/16 07:45:19;;;;;;;22.00;9.13;;;9.50;99.90;;;;;;4911325;28;38214;-76
2023/11/16 07:47:47;;;;;;;23.23;11.43;;;9.40;99.90;;;;;;4895616;28;37506;-75
2023/11/16 07:50:13;;;;;;;25.93;11.60;;;9.40;99.90;;;;;;4910839;28;38247;-76
2023/11/16 07:52:45;;;;;;;24.13;10.67;;;9.40;99.90;;;;;;4904940;28;36974;-77
2023/11/16 07:55:25;;;;;;;23.90;11.23;;;9.40;99.90;;;;;;4909609;28;34604;-76
2023/11/16 07:57:53;;;;;;;24.87;10.67;;;9.30;99.90;;;;;;4908205;28;38210;-76
2023/11/16 08:00:30;;;;;;;26.20;11.73;;;9.30;99.90;;;;;;4908441;28;38235;-76
2023/11/16 08:05:46;;;;;;;24.53;10.87;;;9.30;99.90;;;;;;4906926;28;48977;-79
2023/11/16 08:08:15;;;;;;;19.67;9.67;;;9.40;99.90;;;;;;4914363;28;39007;-76
2023/11/16 08:10:42;;;;;;;19.33;9.43;;;9.40;99.90;;;;;;4907009;28;39825;-76
2023/11/16 08:13:12;;;;;;;20.77;10.07;;;9.40;99.90;;;;;;4903370;28;39099;-76
2023/11/16 08:15:42;;;;;;;20.07;9.50;;;9.40;99.90;;;;;;4903478;28;37867;-76
2023/11/16 08:18:10;;;;;;;22.00;11.00;;;9.40;99.90;;;;;;4906042;28;38312;-76
2023/11/16 08:20:36;;;;;;;20.50;11.70;;;9.40;99.90;;;;;;4897743;29;37601;-77
2023/11/16 08:23:06;;;;;;;20.60;10.60;;;9.50;99.90;;;;;;4897020;28;38561;-77
2023/11/16 08:25:33;;;;;;;22.07;10.80;;;9.50;99.90;;;;;;4910388;28;37105;-76
2023/11/16 08:28:01;;;;;;;25.50;10.30;;;9.50;99.90;;;;;;4912275;28;37278;-76
2023/11/16 08:30:27;;;;;;;23.40;9.80;;;9.50;99.90;;;;;;4911109;28;37702;-77
2023/11/16 08:32:53;;;;;;;27.87;11.83;;;9.40;99.90;;;;;;4912733;28;38441;-77
2023/11/16 08:35:20;;;;;;;21.10;10.97;;;9.50;99.90;;;;;;4917560;28;37569;-77
2023/11/16 08:37:46;;;;;;;20.85;10.45;;;9.50;99.90;;;;;;4896457;28;38360;-77
2023/11/16 08:40:18;;;;;;;20.93;10.77;;;9.50;99.90;;;;;;4915154;28;38908;-76
2023/11/16 08:42:46;;;;;;;17.53;9.27;;;9.40;99.90;;;;;;4899293;29;38226;-78
2023/11/16 08:45:20;;;;;;;20.20;9.47;;;9.40;99.90;;;;;;4904700;28;35776;-76
2023/11/16 08:47:59;;;;;;;21.60;10.67;;;9.40;99.90;;;;;;4902106;28;37729;-76
2023/11/16 08:50:26;;;;;;;19.40;10.43;;;9.30;99.90;;;;;;4920785;28;37866;-76
2023/11/16 08:52:52;;;;;;;19.57;10.07;;;9.40;99.90;;;;;;4918770;28;36862;-76
2023/11/16 08:55:23;;;;;;;17.07;9.50;;;9.40;99.90;;;;;;4921001;28;37415;-76
2023/11/16 08:57:55;;;;;;;28.63;11.03;;;9.40;99.90;;;;;;4903464;28;37922;-77
2023/11/16 09:00:27;;;;;;;;;;;9.30;99.90;;;;;;4900130;28;37544;-77
2023/11/16 09:02:58;;;;;;;21.13;8.83;;;9.30;99.90;;;;;;4899907;28;38000;-77
2023/11/16 09:05:25;;;;;;;21.37;9.50;;;9.30;99.90;;;;;;4900926;28;36809;-76
2023/11/16 09:07:55;;;;;;;22.50;9.70;;;9.20;99.90;;;;;;4910014;28;40002;-77
2023/11/16 09:10:21;;;;;;;22.00;9.80;;;9.30;99.90;;;;;;4910272;28;37539;-76
2023/11/16 09:12:49;;;;;;;16.17;9.27;;;9.30;99.90;;;;;;4919077;28;39742;-77
2023/11/16 09:15:16;;;;;;;21.53;10.07;;;9.30;99.90;;;;;;4916962;28;37500;-77
2023/11/16 09:17:47;;;;;;;26.80;11.13;;;9.30;99.90;;;;;;4912341;28;37682;-76
2023/11/16 09:20:18;;;;;;;24.57;10.63;;;9.30;99.90;;;;;;4896687;28;38673;-76
2023/11/16 09:22:45;;;;;;;23.43;10.50;;;9.20;99.90;;;;;;4915242;28;37421;-77
2023/11/16 09:25:23;;;;;;;19.10;9.70;;;9.30;99.90;;;;;;4903100;28;37097;-76
2023/11/16 09:27:51;;;;;;;22.17;9.83;;;9.30;99.90;;;;;;4921197;28;38516;-77
2023/11/16 09:30:18;;;;;;;17.10;8.43;;;9.20;99.90;;;;;;4923006;28;37799;-77
2023/11/16 09:32:44;;;;;;;21.07;9.53;;;9.20;99.90;;;;;;4915724;28;38690;-77
2023/11/16 09:35:14;;;;;;;21.03;9.37;;;9.30;99.90;;;;;;4914525;28;36624;-77
2023/11/16 09:37:46;;;;;;;19.30;9.73;;;9.20;99.90;;;;;;4903107;29;37183;-77
2023/11/16 09:40:13;;;;;;;17.95;9.65;;;9.20;99.90;;;;;;4901263;28;37470;-76
2023/11/16 09:42:44;;;;;;;21.33;9.27;;;9.20;99.90;;;;;;4908969;28;37481;-76
2023/11/16 09:45:10;;;;;;;19.33;8.80;;;9.20;99.90;;;;;;4910361;29;35450;-76
2023/11/16 09:47:44;;;;;;;21.10;9.17;;;9.20;99.90;;;;;;4906016;28;39064;-76
2023/11/16 09:50:13;;;;;;;19.93;9.30;;;9.30;99.90;;;;;;4905399;28;37263;-79
2023/11/16 09:52:39;;;;;;;18.07;9.63;;;9.30;99.90;;;;;;4901955;29;37769;-79
2023/11/16 09:55:10;;;;;;;18.07;10.00;;;9.40;99.90;;;;;;4903229;29;37580;-78
2023/11/16 09:57:41;;;;;;;24.50;10.27;;;9.40;99.90;;;;;;4916829;28;47327;-78
2023/11/16 10:00:18;;;;;;;22.87;9.77;;;9.30;99.90;;;;;;4902947;29;37425;-77
2023/11/16 10:02:46;;;;;;;16.07;9.20;;;9.40;99.90;;;;;;4923284;28;37324;-80
2023/11/16 10:05:40;;;;;;;24.53;10.63;;;9.40;99.90;;;;;;4928051;28;36693;-79
2023/11/16 10:08:14;;;;;;;20.47;9.97;;;9.60;99.90;;;;;;4903491;29;37881;-79
2023/11/16 10:11:05;;;;;;;18.10;9.90;;;9.70;99.90;;;;;;4918341;28;37903;-80
2023/11/16 10:13:33;;;;;;;22.20;11.00;;;9.60;99.90;;;;;;4923176;29;47085;-78
2023/11/16 10:16:04;;;;;;;18.93;10.80;;;9.50;99.90;;;;;;4922741;28;36090;-80
2023/11/16 10:18:31;;;;;;;25.50;12.20;;;9.60;99.90;;;;;;4921250;29;46729;-79
2023/11/16 10:20:57;;;;;;;33.97;12.07;;;9.60;99.90;;;;;;4924182;28;39154;-79
2023/11/16 10:23:24;;;;;;;20.47;11.43;;;9.50;99.90;;;;;;4905527;28;36919;-79
2023/11/16 10:25:51;;;;;;;20.37;11.00;;;9.40;99.90;;;;;;4926530;28;37577;-79
2023/11/16 10:28:19;;;;;;;20.87;11.03;;;9.40;99.90;;;;;;4919404;28;38450;-79
2023/11/16 10:30:47;;;;;;;25.53;11.60;;;9.40;99.90;;;;;;4905224;28;37666;-79
2023/11/16 10:33:21;;;;;;;18.97;11.20;;;9.40;99.90;;;;;;4924706;28;37582;-80
2023/11/16 10:35:49;;;;;;;22.10;10.77;;;9.50;99.90;;;;;;4926092;28;36521;-80
2023/11/16 10:38:27;;;;;;;23.53;11.03;;;9.40;99.90;;;;;;4928380;28;38695;-80
2023/11/16 10:40:54;;;;;;;26.57;11.53;;;9.40;99.90;;;;;;4908023;29;37847;-80
2023/11/16 10:43:26;;;;;;;18.00;9.60;;;9.50;99.90;;;;;;4905953;29;37291;-80
2023/11/16 10:45:53;;;;;;;18.93;9.97;;;9.50;99.90;;;;;;4905132;28;36488;-79
2023/11/16 10:48:20;;;;;;;19.27;10.73;;;9.50;99.90;;;;;;4923171;28;37504;-79
2023/11/16 10:50:47;;;;;;;22.20;11.47;;;9.50;99.90;;;;;;4907450;29;37148;-80
2023/11/16 10:53:22;;;;;;;23.80;10.97;;;9.50;99.90;;;;;;4906699;29;39227;-79
2023/11/16 10:55:50;;;;;;;19.97;11.53;;;9.40;99.90;;;;;;4910455;28;36158;-80
2023/11/16 10:58:20;;;;;;;24.40;10.67;;;9.40;99.90;;;;;;4925611;28;38337;-80
2023/11/16 11:00:56;;;;;;;16.17;9.90;;;9.30;99.90;;;;;;4925447;28;38650;-81
2023/11/16 11:03:24;;;;;;;21.20;11.73;;;9.40;99.90;;;;;;4921257;28;36926;-80
2023/11/16 11:05:57;;;;;;;18.57;11.17;;;9.40;99.90;;;;;;4907538;29;35494;-79
2023/11/16 11:08:43;;;;;;;16.30;10.20;;;9.40;99.90;;;;;;4927002;28;38271;-78
2023/11/16 11:11:12;;;;;;;19.43;11.63;;;9.40;99.90;;;;;;4901489;29;37347;-78
2023/11/16 11:13:41;;;;;;;22.93;12.07;;;9.50;99.90;;;;;;4921575;28;39943;-78
2023/11/16 11:16:10;;;;;;;20.37;11.73;;;9.40;99.90;;;;;;4921677;28;36970;-78
2023/11/16 11:18:52;;;;;;;24.57;11.33;;;9.40;99.90;;;;;;4922119;29;40037;-79
2023/11/16 11:21:20;;;;;;;22.53;11.67;;;9.40;99.90;;;;;;4920080;28;38616;-79
2023/11/16 11:23:59;;;;;;;24.60;12.47;;;9.30;99.90;;;;;;4916018;28;37393;-78
2023/11/16 11:26:35;;;;;;;25.93;12.47;;;9.30;99.90;;;;;;4924429;28;39081;-77
2023/11/16 11:29:02;;;;;;;29.43;12.40;;;9.30;99.90;;;;;;4902297;29;38993;-79
2023/11/16 11:32:00;;;;;;;22.47;13.13;;;9.30;99.90;;;;;;4919577;28;38674;-78
2023/11/16 11:34:29;;;;;;;27.23;14.73;;;9.30;99.90;;;;;;4918335;28;38636;-79
2023/11/16 11:36:56;;;;;;;27.77;14.77;;;9.40;99.90;;;;;;4921088;28;37779;-79
2023/11/16 11:39:26;;;;;;;22.57;14.30;;;9.40;99.90;;;;;;4917249;28;39580;-79
2023/11/16 11:42:02;;;;;;;24.33;13.70;;;9.40;99.90;;;;;;4919056;28;37256;-80
2023/11/16 11:44:28;;;;;;;23.20;11.83;;;9.50;99.90;;;;;;4920245;28;48534;-79
2023/11/16 11:46:57;;;;;;;30.70;13.53;;;9.50;99.90;;;;;;4905098;29;36696;-78
2023/11/16 11:49:25;;;;;;;17.23;11.80;;;9.50;99.90;;;;;;4918909;28;39452;-77
2023/11/16 11:51:59;;;;;;;21.30;11.73;;;9.50;99.90;;;;;;4900519;29;37582;-78
2023/11/16 11:54:35;;;;;;;20.77;10.80;;;9.60;99.90;;;;;;4921053;28;38427;-78
2023/11/16 11:57:05;;;;;;;17.47;9.87;;;9.60;99.90;;;;;;4905895;28;37516;-80
2023/11/16 11:59:31;;;;;;;18.73;10.67;;;9.70;99.90;;;;;;4918303;28;39422;-78
2023/11/16 12:02:07;;;;;;;16.07;9.40;;;9.70;99.90;;;;;;4908308;28;37933;-78
2023/11/16 12:04:34;;;;;;;14.47;8.23;;;9.70;99.90;;;;;;4899148;29;47133;-77
2023/11/16 12:07:10;;;;;;;16.97;8.40;;;9.70;99.90;;;;;;4895350;28;37479;-77
2023/11/16 12:09:41;;;;;;;15.60;7.63;;;9.70;99.90;;;;;;4914639;28;49467;-77
2023/11/16 12:12:09;;;;;;;15.53;7.17;;;9.60;99.90;;;;;;4913621;28;38779;-78
2023/11/16 12:14:46;;;;;;;18.33;8.77;;;9.70;99.90;;;;;;4915443;28;36778;-77
2023/11/16 12:17:14;;;;;;;18.20;9.10;;;9.70;99.90;;;;;;4916731;28;37494;-79
2023/11/16 12:19:41;;;;;;;21.47;9.00;;;9.70;99.90;;;;;;4899422;29;37547;-77
2023/11/16 12:22:08;;;;;;;18.63;9.07;;;9.70;99.90;;;;;;4899945;29;37749;-77
2023/11/16 12:24:34;;;;;;;18.43;8.23;;;9.70;99.90;;;;;;4915096;28;37589;-77
2023/11/16 12:27:01;;;;;;;14.27;8.17;;;9.70;99.90;;;;;;4913798;28;36456;-77
2023/11/16 12:29:27;;;;;;;22.07;9.70;;;9.60;99.90;;;;;;4916693;28;40711;-77
2023/11/16 12:32:01;;;;;;;12.87;9.30;;;9.70;99.90;;;;;;4935175;28;39769;-81
2023/11/16 12:34:28;;;;;;;16.63;9.23;;;9.70;99.90;;;;;;4909788;29;48274;-78
2023/11/16 12:36:55;;;;;;;25.57;11.20;;;9.70;99.90;;;;;;4898627;29;36915;-77
2023/11/16 12:39:25;;;;;;;18.00;10.63;;;9.70;99.90;;;;;;4904080;28;39435;-78
2023/11/16 12:41:53;;;;;;;17.77;12.23;;;9.80;99.90;;;;;;4902963;29;37334;-78
2023/11/16 12:44:20;;;;;;;21.97;13.73;;;9.70;99.90;;;;;;4906458;29;36807;-78
2023/11/16 12:46:47;;;;;;;22.20;13.23;;;9.70;99.90;;;;;;4922777;28;37230;-78
2023/11/16 12:49:16;;;;;;;16.70;12.70;;;9.80;99.90;;;;;;4922374;28;39312;-78
2023/11/16 12:51:42;;;;;;;20.87;13.60;;;9.80;99.90;;;;;;4920369;28;38488;-78
2023/11/16 12:54:08;;;;;;;20.03;13.23;;;9.70;99.90;;;;;;4924381;28;37585;-79
2023/11/16 12:56:37;;;;;;;20.17;12.80;;;9.70;99.90;;;;;;4908439;28;37137;-79